sensor_id;sensor_type;location;lat;lon;timestamp;pressure;altitude;pressure_sealevel;temperature;humidity
83488;BME280;73424;49.994;8.184;2023-12-20T00:00:55;99960.03;;;4.52;96.22
83488;BME280;73424;49.994;8.184;2023-12-20T00:03:20;99983.69;;;4.70;96.87
83488;BME280;73424;49.994;8.184;2023-12-20T00:05:47;100011.44;;;4.82;97.30
83488;BME280;73424;49.994;8.184;2023-12-20T00:08:12;100000.88;;;4.82;96.16
83488;BME280;73424;49.994;8.184;2023-12-20T00:10:37;100004.50;;;4.81;96.75
83488;BME280;73424;49.994;8.184;2023-12-20T00:13:03;99964.00;;;4.56;96.49
83488;BME280;73424;49.994;8.184;2023-12-20T00:15:28;99942.66;;;4.50;96.85
83488;BME280;73424;49.994;8.184;2023-12-20T00:17:53;99982.38;;;4.74;96.58
83488;BME280;73424;49.994;8.184;2023-12-20T00:20:19;99969.81;;;4.68;96.26
83488;BME280;73424;49.994;8.184;2023-12-20T00:22:44;99924.19;;;4.42;96.53
83488;BME280;73424;49.994;8.184;2023-12-20T00:25:09;99967.97;;;4.68;97.37
83488;BME280;73424;49.994;8.184;2023-12-20T00:27:35;99982.84;;;4.77;96.69
83488;BME280;73424;49.994;8.184;2023-12-20T00:30:00;99937.75;;;4.55;97.09
83488;BME280;73424;49.994;8.184;2023-12-20T00:32:25;99976.41;;;4.72;96.60
83488;BME280;73424;49.994;8.184;2023-12-20T00:34:50;99973.75;;;4.72;96.82
83488;BME280;73424;49.994;8.184;2023-12-20T00:37:16;99969.31;;;4.72;97.12
83488;BME280;73424;49.994;8.184;2023-12-20T00:39:41;99957.91;;;4.64;96.97
83488;BME280;73424;49.994;8.184;2023-12-20T00:42:07;99951.94;;;4.62;97.20
83488;BME280;73424;49.994;8.184;2023-12-20T00:44:32;99941.56;;;4.52;97.38
83488;BME280;73424;49.994;8.184;2023-12-20T00:46:57;99936.41;;;4.51;96.36
83488;BME280;73424;49.994;8.184;2023-12-20T00:49:23;99957.59;;;4.67;96.97
83488;BME280;73424;49.994;8.184;2023-12-20T00:51:48;99952.78;;;4.62;97.55
83488;BME280;73424;49.994;8.184;2023-12-20T00:54:15;99969.16;;;4.74;97.79
83488;BME280;73424;49.994;8.184;2023-12-20T00:56:41;99967.50;;;4.73;97.34
83488;BME280;73424;49.994;8.184;2023-12-20T00:59:06;99943.53;;;4.58;96.96
83488;BME280;73424;49.994;8.184;2023-12-20T01:01:31;99960.41;;;4.73;97.76
83488;BME280;73424;49.994;8.184;2023-12-20T01:03:58;99928.66;;;4.49;96.72
83488;BME280;73424;49.994;8.184;2023-12-20T01:06:23;99960.91;;;4.77;97.68
83488;BME280;73424;49.994;8.184;2023-12-20T01:08:48;99952.63;;;4.72;96.39
83488;BME280;73424;49.994;8.184;2023-12-20T01:11:14;99953.13;;;4.75;97.62
83488;BME280;73424;49.994;8.184;2023-12-20T01:13:39;99940.44;;;4.71;97.61
83488;BME280;73424;49.994;8.184;2023-12-20T01:16:04;99931.47;;;4.56;97.21
83488;BME280;73424;49.994;8.184;2023-12-20T01:18:30;99967.19;;;4.84;96.81
83488;BME280;73424;49.994;8.184;2023-12-20T01:20:56;99927.19;;;4.55;97.19
83488;BME280;73424;49.994;8.184;2023-12-20T01:23:21;99937.59;;;4.72;96.74
83488;BME280;73424;49.994;8.184;2023-12-20T01:25:46;99927.34;;;4.53;97.37
83488;BME280;73424;49.994;8.184;2023-12-20T01:28:12;99942.56;;;4.67;97.44
83488;BME280;73424;49.994;8.184;2023-12-20T01:30:37;99945.38;;;4.74;96.62
83488;BME280;73424;49.994;8.184;2023-12-20T01:33:03;99922.22;;;4.60;97.25
83488;BME280;73424;49.994;8.184;2023-12-20T01:35:28;99934.81;;;4.74;96.80
83488;BME280;73424;49.994;8.184;2023-12-20T01:37:53;99949.03;;;4.89;96.67
83488;BME280;73424;49.994;8.184;2023-12-20T01:40:22;99944.06;;;4.86;96.30
83488;BME280;73424;49.994;8.184;2023-12-20T01:42:47;99925.84;;;4.59;96.59
83488;BME280;73424;49.994;8.184;2023-12-20T01:45:13;99955.13;;;4.73;96.35
83488;BME280;73424;49.994;8.184;2023-12-20T01:47:38;99958.25;;;4.69;96.88
83488;BME280;73424;49.994;8.184;2023-12-20T01:50:03;99974.28;;;4.75;97.58
83488;BME280;73424;49.994;8.184;2023-12-20T01:52:29;99934.78;;;4.58;96.81
83488;BME280;73424;49.994;8.184;2023-12-20T01:54:55;99946.03;;;4.68;96.83
83488;BME280;73424;49.994;8.184;2023-12-20T01:57:26;99963.38;;;4.78;97.08
83488;BME280;73424;49.994;8.184;2023-12-20T01:59:52;99958.59;;;4.82;96.32
83488;BME280;73424;49.994;8.184;2023-12-20T02:02:18;99955.78;;;4.75;95.97
83488;BME280;73424;49.994;8.184;2023-12-20T02:04:43;99978.75;;;4.83;97.34
83488;BME280;73424;49.994;8.184;2023-12-20T02:07:08;99933.63;;;4.68;96.63
83488;BME280;73424;49.994;8.184;2023-12-20T02:09:35;99962.72;;;4.84;97.03
83488;BME280;73424;49.994;8.184;2023-12-20T02:12:00;99956.59;;;4.84;96.28
83488;BME280;73424;49.994;8.184;2023-12-20T02:14:25;99920.41;;;4.68;96.57
83488;BME280;73424;49.994;8.184;2023-12-20T02:16:51;99938.44;;;4.81;96.04
83488;BME280;73424;49.994;8.184;2023-12-20T02:19:17;99950.50;;;4.83;96.28
83488;BME280;73424;49.994;8.184;2023-12-20T02:21:42;99940.94;;;4.82;97.31
83488;BME280;73424;49.994;8.184;2023-12-20T02:24:08;99918.75;;;4.59;97.00
83488;BME280;73424;49.994;8.184;2023-12-20T02:26:33;99940.09;;;4.74;97.39
83488;BME280;73424;49.994;8.184;2023-12-20T02:28:59;99916.94;;;4.60;96.00
83488;BME280;73424;49.994;8.184;2023-12-20T02:31:25;99956.94;;;4.81;96.46
83488;BME280;73424;49.994;8.184;2023-12-20T02:33:50;99932.78;;;4.60;96.56
83488;BME280;73424;49.994;8.184;2023-12-20T02:36:15;99914.31;;;4.52;96.86
83488;BME280;73424;49.994;8.184;2023-12-20T02:38:40;99936.13;;;4.70;96.22
83488;BME280;73424;49.994;8.184;2023-12-20T02:41:06;99914.63;;;4.65;96.42
83488;BME280;73424;49.994;8.184;2023-12-20T02:43:31;99919.75;;;4.74;96.13
83488;BME280;73424;49.994;8.184;2023-12-20T02:45:56;99954.00;;;4.92;96.72
83488;BME280;73424;49.994;8.184;2023-12-20T02:48:22;99942.22;;;4.86;96.09
83488;BME280;73424;49.994;8.184;2023-12-20T02:50:48;99965.03;;;4.95;95.46
83488;BME280;73424;49.994;8.184;2023-12-20T02:53:14;99973.13;;;5.02;95.90
83488;BME280;73424;49.994;8.184;2023-12-20T02:55:39;99977.13;;;4.98;96.10
83488;BME280;73424;49.994;8.184;2023-12-20T02:58:05;99942.56;;;4.83;96.80
83488;BME280;73424;49.994;8.184;2023-12-20T03:00:30;99957.09;;;4.95;95.45
83488;BME280;73424;49.994;8.184;2023-12-20T03:02:55;99969.50;;;5.11;95.32
83488;BME280;73424;49.994;8.184;2023-12-20T03:05:20;99923.25;;;4.83;95.78
83488;BME280;73424;49.994;8.184;2023-12-20T03:07:46;99945.38;;;5.06;95.95
83488;BME280;73424;49.994;8.184;2023-12-20T03:10:11;99932.97;;;4.99;95.75
83488;BME280;73424;49.994;8.184;2023-12-20T03:12:36;99956.97;;;5.13;96.09
83488;BME280;73424;49.994;8.184;2023-12-20T03:15:02;99942.75;;;4.98;95.89
83488;BME280;73424;49.994;8.184;2023-12-20T03:17:27;99933.81;;;4.91;95.17
83488;BME280;73424;49.994;8.184;2023-12-20T03:19:53;99905.41;;;4.69;95.33
83488;BME280;73424;49.994;8.184;2023-12-20T03:22:18;99967.19;;;5.08;96.07
83488;BME280;73424;49.994;8.184;2023-12-20T03:24:43;99987.88;;;5.13;95.93
83488;BME280;73424;49.994;8.184;2023-12-20T03:27:08;100008.84;;;5.14;96.23
83488;BME280;73424;49.994;8.184;2023-12-20T03:29:34;99995.13;;;5.11;96.29
83488;BME280;73424;49.994;8.184;2023-12-20T03:31:59;100002.25;;;5.18;95.62
83488;BME280;73424;49.994;8.184;2023-12-20T03:34:24;99950.84;;;4.88;94.98
83488;BME280;73424;49.994;8.184;2023-12-20T03:36:49;100011.34;;;5.16;95.31
83488;BME280;73424;49.994;8.184;2023-12-20T03:39:15;100010.03;;;5.20;94.86
83488;BME280;73424;49.994;8.184;2023-12-20T03:41:40;100009.50;;;5.24;95.70
83488;BME280;73424;49.994;8.184;2023-12-20T03:44:05;100010.81;;;5.20;95.77
83488;BME280;73424;49.994;8.184;2023-12-20T03:46:31;100017.13;;;5.27;95.88
83488;BME280;73424;49.994;8.184;2023-12-20T03:48:56;99990.00;;;5.01;95.79
83488;BME280;73424;49.994;8.184;2023-12-20T03:51:22;100006.53;;;5.19;95.00
83488;BME280;73424;49.994;8.184;2023-12-20T03:53:47;100023.06;;;5.29;96.29
83488;BME280;73424;49.994;8.184;2023-12-20T03:56:13;99978.44;;;5.10;95.54
83488;BME280;73424;49.994;8.184;2023-12-20T03:58:38;99983.72;;;5.18;95.84
83488;BME280;73424;49.994;8.184;2023-12-20T04:01:03;100009.19;;;5.43;94.67
83488;BME280;73424;49.994;8.184;2023-12-20T04:03:28;99995.97;;;5.27;95.41
83488;BME280;73424;49.994;8.184;2023-12-20T04:05:54;100008.69;;;5.32;95.59
83488;BME280;73424;49.994;8.184;2023-12-20T04:08:20;100000.44;;;5.35;96.21
83488;BME280;73424;49.994;8.184;2023-12-20T04:10:45;99958.44;;;5.08;95.67
83488;BME280;73424;49.994;8.184;2023-12-20T04:13:10;100026.69;;;5.36;95.30
83488;BME280;73424;49.994;8.184;2023-12-20T04:15:35;100009.38;;;5.26;96.18
83488;BME280;73424;49.994;8.184;2023-12-20T04:18:01;100004.88;;;5.10;96.14
83488;BME280;73424;49.994;8.184;2023-12-20T04:20:26;100036.09;;;5.15;96.11
83488;BME280;73424;49.994;8.184;2023-12-20T04:22:51;99998.91;;;5.00;96.30
83488;BME280;73424;49.994;8.184;2023-12-20T04:25:17;100021.88;;;5.00;95.94
83488;BME280;73424;49.994;8.184;2023-12-20T04:27:42;100020.72;;;5.02;95.49
83488;BME280;73424;49.994;8.184;2023-12-20T04:30:07;100024.19;;;5.03;95.24
83488;BME280;73424;49.994;8.184;2023-12-20T04:32:33;100031.97;;;5.12;92.59
83488;BME280;73424;49.994;8.184;2023-12-20T04:34:58;100067.38;;;5.43;91.58
83488;BME280;73424;49.994;8.184;2023-12-20T04:37:23;100057.78;;;5.34;91.63
83488;BME280;73424;49.994;8.184;2023-12-20T04:39:49;100074.00;;;5.31;92.14
83488;BME280;73424;49.994;8.184;2023-12-20T04:42:15;100082.91;;;5.38;90.29
83488;BME280;73424;49.994;8.184;2023-12-20T04:44:40;100080.94;;;5.40;90.67
83488;BME280;73424;49.994;8.184;2023-12-20T04:47:05;100049.50;;;5.13;90.38
83488;BME280;73424;49.994;8.184;2023-12-20T04:49:30;100082.91;;;5.22;89.96
83488;BME280;73424;49.994;8.184;2023-12-20T04:51:56;100034.91;;;4.93;89.54
83488;BME280;73424;49.994;8.184;2023-12-20T04:54:21;100081.88;;;5.07;89.78
83488;BME280;73424;49.994;8.184;2023-12-20T04:56:47;100065.47;;;4.79;88.65
83488;BME280;73424;49.994;8.184;2023-12-20T04:59:12;100095.03;;;4.83;90.03
83488;BME280;73424;49.994;8.184;2023-12-20T05:01:38;100100.25;;;4.67;89.35
83488;BME280;73424;49.994;8.184;2023-12-20T05:04:03;100089.84;;;4.65;88.98
83488;BME280;73424;49.994;8.184;2023-12-20T05:06:29;100081.19;;;4.47;88.25
83488;BME280;73424;49.994;8.184;2023-12-20T05:08:54;100096.75;;;4.58;87.47
83488;BME280;73424;49.994;8.184;2023-12-20T05:11:19;100095.69;;;4.43;87.95
83488;BME280;73424;49.994;8.184;2023-12-20T05:13:44;100100.16;;;4.43;88.78
83488;BME280;73424;49.994;8.184;2023-12-20T05:16:10;100100.91;;;4.69;84.81
83488;BME280;73424;49.994;8.184;2023-12-20T05:18:35;100089.59;;;4.43;86.93
83488;BME280;73424;49.994;8.184;2023-12-20T05:21:00;100097.88;;;4.56;86.19
83488;BME280;73424;49.994;8.184;2023-12-20T05:23:26;100062.84;;;4.46;86.05
83488;BME280;73424;49.994;8.184;2023-12-20T05:25:51;100043.31;;;4.30;86.22
83488;BME280;73424;49.994;8.184;2023-12-20T05:28:17;100103.53;;;4.61;86.97
83488;BME280;73424;49.994;8.184;2023-12-20T05:30:42;100095.63;;;4.61;86.80
83488;BME280;73424;49.994;8.184;2023-12-20T05:33:08;100083.34;;;4.52;88.12
83488;BME280;73424;49.994;8.184;2023-12-20T05:35:34;100074.75;;;4.50;87.41
83488;BME280;73424;49.994;8.184;2023-12-20T05:37:59;100098.78;;;4.72;87.64
83488;BME280;73424;49.994;8.184;2023-12-20T05:40:24;100041.22;;;4.50;87.41
83488;BME280;73424;49.994;8.184;2023-12-20T05:42:50;100085.03;;;4.61;87.40
83488;BME280;73424;49.994;8.184;2023-12-20T05:45:15;100052.94;;;4.39;87.88
83488;BME280;73424;49.994;8.184;2023-12-20T05:47:40;100072.06;;;4.42;88.56
83488;BME280;73424;49.994;8.184;2023-12-20T05:50:06;100069.31;;;4.17;89.02
83488;BME280;73424;49.994;8.184;2023-12-20T05:52:31;100072.94;;;4.16;89.70
83488;BME280;73424;49.994;8.184;2023-12-20T05:54:56;100088.56;;;4.10;89.48
83488;BME280;73424;49.994;8.184;2023-12-20T05:57:26;100062.94;;;3.76;90.61
83488;BME280;73424;49.994;8.184;2023-12-20T05:59:51;100077.41;;;3.90;88.66
83488;BME280;73424;49.994;8.184;2023-12-20T06:02:17;100100.56;;;3.78;90.34
83488;BME280;73424;49.994;8.184;2023-12-20T06:04:42;100110.44;;;3.76;88.77
83488;BME280;73424;49.994;8.184;2023-12-20T06:07:11;100124.31;;;3.78;88.83
83488;BME280;73424;49.994;8.184;2023-12-20T06:09:37;100114.75;;;3.60;88.74
83488;BME280;73424;49.994;8.184;2023-12-20T06:12:02;100090.81;;;3.36;89.70
83488;BME280;73424;49.994;8.184;2023-12-20T06:14:27;100118.09;;;3.44;91.15
83488;BME280;73424;49.994;8.184;2023-12-20T06:16:53;100095.41;;;3.34;89.96
83488;BME280;73424;49.994;8.184;2023-12-20T06:19:18;100091.63;;;3.18;89.87
83488;BME280;73424;49.994;8.184;2023-12-20T06:21:43;100131.34;;;3.35;90.35
83488;BME280;73424;49.994;8.184;2023-12-20T06:24:08;100134.56;;;3.28;91.20
83488;BME280;73424;49.994;8.184;2023-12-20T06:26:34;100098.78;;;3.08;89.69
83488;BME280;73424;49.994;8.184;2023-12-20T06:29:00;100147.38;;;3.23;89.82
83488;BME280;73424;49.994;8.184;2023-12-20T06:31:25;100136.06;;;3.13;90.26
83488;BME280;73424;49.994;8.184;2023-12-20T06:33:50;100136.94;;;3.04;91.58
83488;BME280;73424;49.994;8.184;2023-12-20T06:36:22;100104.09;;;2.81;91.48
83488;BME280;73424;49.994;8.184;2023-12-20T06:38:47;100083.44;;;2.77;91.92
83488;BME280;73424;49.994;8.184;2023-12-20T06:41:13;100089.63;;;2.85;91.42
83488;BME280;73424;49.994;8.184;2023-12-20T06:43:39;100126.44;;;3.22;91.21
83488;BME280;73424;49.994;8.184;2023-12-20T06:46:04;100087.59;;;2.97;91.10
83488;BME280;73424;49.994;8.184;2023-12-20T06:48:29;100103.00;;;3.19;90.19
83488;BME280;73424;49.994;8.184;2023-12-20T06:50:55;100085.44;;;3.10;90.51
83488;BME280;73424;49.994;8.184;2023-12-20T06:53:20;100116.03;;;3.20;91.75
83488;BME280;73424;49.994;8.184;2023-12-20T06:55:45;100078.50;;;2.91;91.72
83488;BME280;73424;49.994;8.184;2023-12-20T06:58:10;100089.78;;;2.84;91.14
83488;BME280;73424;49.994;8.184;2023-12-20T07:00:36;100040.50;;;2.49;91.13
83488;BME280;73424;49.994;8.184;2023-12-20T07:03:01;100117.94;;;2.83;91.74
83488;BME280;73424;49.994;8.184;2023-12-20T07:05:27;100152.69;;;2.96;91.53
83488;BME280;73424;49.994;8.184;2023-12-20T07:07:52;100140.84;;;3.00;92.37
83488;BME280;73424;49.994;8.184;2023-12-20T07:10:17;100134.63;;;3.01;91.77
83488;BME280;73424;49.994;8.184;2023-12-20T07:12:43;100125.03;;;3.00;91.12
83488;BME280;73424;49.994;8.184;2023-12-20T07:15:09;100081.06;;;2.83;91.24
83488;BME280;73424;49.994;8.184;2023-12-20T07:17:34;100145.19;;;3.19;91.87
83488;BME280;73424;49.994;8.184;2023-12-20T07:20:00;100129.19;;;3.03;91.45
83488;BME280;73424;49.994;8.184;2023-12-20T07:22:32;100157.63;;;3.26;91.44
83488;BME280;73424;49.994;8.184;2023-12-20T07:24:58;100149.31;;;3.21;90.95
83488;BME280;73424;49.994;8.184;2023-12-20T07:27:24;100133.09;;;2.99;91.39
83488;BME280;73424;49.994;8.184;2023-12-20T07:29:49;100162.13;;;3.16;92.32
83488;BME280;73424;49.994;8.184;2023-12-20T07:32:14;100120.34;;;2.94;92.44
83488;BME280;73424;49.994;8.184;2023-12-20T07:34:39;100152.38;;;2.99;92.60
83488;BME280;73424;49.994;8.184;2023-12-20T07:37:05;100144.94;;;3.12;91.68
83488;BME280;73424;49.994;8.184;2023-12-20T07:39:30;100175.56;;;3.41;90.92
83488;BME280;73424;49.994;8.184;2023-12-20T07:41:56;100166.38;;;3.45;91.49
83488;BME280;73424;49.994;8.184;2023-12-20T07:44:21;100133.13;;;3.52;90.64
83488;BME280;73424;49.994;8.184;2023-12-20T07:46:46;100164.91;;;5.30;99.17
83488;BME280;73424;49.994;8.184;2023-12-20T07:49:13;100168.03;;;4.24;88.83
83488;BME280;73424;49.994;8.184;2023-12-20T07:51:38;100163.66;;;3.90;89.24
83488;BME280;73424;49.994;8.184;2023-12-20T07:54:04;100165.16;;;3.92;89.44
83488;BME280;73424;49.994;8.184;2023-12-20T07:56:29;100141.28;;;3.76;90.07
83488;BME280;73424;49.994;8.184;2023-12-20T07:58:55;100158.06;;;3.93;89.29
83488;BME280;73424;49.994;8.184;2023-12-20T08:01:20;100139.28;;;3.96;88.43
83488;BME280;73424;49.994;8.184;2023-12-20T08:03:45;100173.69;;;4.29;88.68
83488;BME280;73424;49.994;8.184;2023-12-20T08:06:11;100163.94;;;4.30;87.84
83488;BME280;73424;49.994;8.184;2023-12-20T08:08:36;100175.13;;;4.50;89.11
83488;BME280;73424;49.994;8.184;2023-12-20T08:11:02;100178.78;;;4.57;87.89
83488;BME280;73424;49.994;8.184;2023-12-20T08:13:27;100163.78;;;4.57;87.80
83488;BME280;73424;49.994;8.184;2023-12-20T08:15:53;100182.19;;;4.75;86.91
83488;BME280;73424;49.994;8.184;2023-12-20T08:18:19;100158.69;;;4.64;86.58
83488;BME280;73424;49.994;8.184;2023-12-20T08:20:44;100187.66;;;4.73;86.79
83488;BME280;73424;49.994;8.184;2023-12-20T08:23:09;100131.22;;;4.49;86.79
83488;BME280;73424;49.994;8.184;2023-12-20T08:25:35;100181.63;;;4.89;87.08
83488;BME280;73424;49.994;8.184;2023-12-20T08:28:02;100153.75;;;4.69;86.80
83488;BME280;73424;49.994;8.184;2023-12-20T08:30:28;100177.00;;;4.91;87.32
83488;BME280;73424;49.994;8.184;2023-12-20T08:32:53;100160.94;;;4.84;86.15
83488;BME280;73424;49.994;8.184;2023-12-20T08:35:18;100147.00;;;4.74;86.19
83488;BME280;73424;49.994;8.184;2023-12-20T08:37:44;100210.81;;;5.13;86.06
83488;BME280;73424;49.994;8.184;2023-12-20T08:40:09;100196.25;;;5.17;86.66
83488;BME280;73424;49.994;8.184;2023-12-20T08:42:35;100184.16;;;5.07;85.21
83488;BME280;73424;49.994;8.184;2023-12-20T08:45:00;100192.28;;;5.13;84.64
83488;BME280;73424;49.994;8.184;2023-12-20T08:47:25;100207.22;;;5.30;85.72
83488;BME280;73424;49.994;8.184;2023-12-20T08:49:51;100196.31;;;5.25;85.83
83488;BME280;73424;49.994;8.184;2023-12-20T08:52:21;100176.44;;;5.21;85.91
83488;BME280;73424;49.994;8.184;2023-12-20T08:54:46;100188.38;;;5.33;85.89
83488;BME280;73424;49.994;8.184;2023-12-20T08:57:12;100199.47;;;5.37;85.33
83488;BME280;73424;49.994;8.184;2023-12-20T08:59:37;100202.44;;;5.42;85.15
83488;BME280;73424;49.994;8.184;2023-12-20T09:02:02;100180.78;;;5.38;85.26
83488;BME280;73424;49.994;8.184;2023-12-20T09:04:28;100204.00;;;5.61;85.80
83488;BME280;73424;49.994;8.184;2023-12-20T09:06:54;100193.72;;;5.58;85.64
83488;BME280;73424;49.994;8.184;2023-12-20T09:09:19;100204.69;;;5.71;84.99
83488;BME280;73424;49.994;8.184;2023-12-20T09:11:45;100201.53;;;5.67;84.03
83488;BME280;73424;49.994;8.184;2023-12-20T09:14:12;100165.28;;;5.52;83.57
83488;BME280;73424;49.994;8.184;2023-12-20T09:16:37;100169.25;;;5.56;84.33
83488;BME280;73424;49.994;8.184;2023-12-20T09:19:02;100170.59;;;5.68;83.96
83488;BME280;73424;49.994;8.184;2023-12-20T09:21:28;100170.94;;;5.73;84.61
83488;BME280;73424;49.994;8.184;2023-12-20T09:23:53;100178.22;;;5.79;84.11
83488;BME280;73424;49.994;8.184;2023-12-20T09:26:19;100193.97;;;5.88;84.32
83488;BME280;73424;49.994;8.184;2023-12-20T09:28:44;100202.75;;;5.89;84.13
83488;BME280;73424;49.994;8.184;2023-12-20T09:31:10;100178.06;;;5.96;84.12
83488;BME280;73424;49.994;8.184;2023-12-20T09:33:35;100146.44;;;5.79;83.82
83488;BME280;73424;49.994;8.184;2023-12-20T09:36:00;100195.81;;;6.04;83.21
83488;BME280;73424;49.994;8.184;2023-12-20T09:38:26;100188.00;;;5.94;83.66
83488;BME280;73424;49.994;8.184;2023-12-20T09:40:51;100156.06;;;5.72;83.54
83488;BME280;73424;49.994;8.184;2023-12-20T09:43:19;100212.34;;;5.98;84.34
83488;BME280;73424;49.994;8.184;2023-12-20T09:45:48;100204.06;;;6.01;83.78
83488;BME280;73424;49.994;8.184;2023-12-20T09:48:13;100166.13;;;5.84;84.62
83488;BME280;73424;49.994;8.184;2023-12-20T09:50:43;100173.94;;;5.86;83.39
83488;BME280;73424;49.994;8.184;2023-12-20T09:53:11;100195.81;;;6.04;83.46
83488;BME280;73424;49.994;8.184;2023-12-20T09:55:41;100160.38;;;5.97;83.67
83488;BME280;73424;49.994;8.184;2023-12-20T09:58:06;100205.38;;;6.21;83.39
83488;BME280;73424;49.994;8.184;2023-12-20T10:00:34;100201.09;;;6.12;83.28
83488;BME280;73424;49.994;8.184;2023-12-20T10:03:00;100199.44;;;6.11;83.80
83488;BME280;73424;49.994;8.184;2023-12-20T10:05:28;100142.81;;;5.80;83.14
83488;BME280;73424;49.994;8.184;2023-12-20T10:07:53;100210.03;;;6.19;83.78
83488;BME280;73424;49.994;8.184;2023-12-20T10:10:18;100199.28;;;6.13;83.87
83488;BME280;73424;49.994;8.184;2023-12-20T10:13:03;100202.91;;;6.28;83.32
83488;BME280;73424;49.994;8.184;2023-12-20T10:15:29;100187.19;;;6.26;83.15
83488;BME280;73424;49.994;8.184;2023-12-20T10:17:54;100216.78;;;6.46;82.15
83488;BME280;73424;49.994;8.184;2023-12-20T10:20:20;100198.09;;;6.39;82.04
83488;BME280;73424;49.994;8.184;2023-12-20T10:22:46;100192.09;;;6.45;82.10
83488;BME280;73424;49.994;8.184;2023-12-20T10:25:11;100172.59;;;6.38;80.96
83488;BME280;73424;49.994;8.184;2023-12-20T10:27:36;100172.94;;;6.35;81.54
83488;BME280;73424;49.994;8.184;2023-12-20T10:30:02;100174.22;;;6.39;80.95
83488;BME280;73424;49.994;8.184;2023-12-20T10:32:27;100179.88;;;6.44;81.62
83488;BME280;73424;49.994;8.184;2023-12-20T10:34:54;100167.94;;;6.40;80.65
83488;BME280;73424;49.994;8.184;2023-12-20T10:37:20;100142.47;;;6.15;80.61
83488;BME280;73424;49.994;8.184;2023-12-20T10:39:50;100146.25;;;8.13;74.19
83488;BME280;73424;49.994;8.184;2023-12-20T10:42:18;100138.34;;;6.84;77.05
83488;BME280;73424;49.994;8.184;2023-12-20T10:44:46;100153.03;;;6.39;78.60
83488;BME280;73424;49.994;8.184;2023-12-20T10:47:13;100153.75;;;6.25;79.55
83488;BME280;73424;49.994;8.184;2023-12-20T10:49:39;100142.16;;;6.26;79.66
83488;BME280;73424;49.994;8.184;2023-12-20T10:52:05;100108.06;;;6.07;79.87
83488;BME280;73424;49.994;8.184;2023-12-20T10:54:31;100115.66;;;6.18;79.45
83488;BME280;73424;49.994;8.184;2023-12-20T10:56:57;100144.09;;;6.40;78.95
83488;BME280;73424;49.994;8.184;2023-12-20T10:59:24;100138.16;;;6.38;78.42
83488;BME280;73424;49.994;8.184;2023-12-20T11:01:50;100135.84;;;6.35;77.99
83488;BME280;73424;49.994;8.184;2023-12-20T11:04:23;100052.97;;;5.94;78.21
83488;BME280;73424;49.994;8.184;2023-12-20T11:07:08;100142.44;;;6.47;77.34
83488;BME280;73424;49.994;8.184;2023-12-20T11:09:44;100114.47;;;6.37;76.66
83488;BME280;73424;49.994;8.184;2023-12-20T11:12:46;100119.75;;;6.45;77.04
83488;BME280;73424;49.994;8.184;2023-12-20T11:15:09;100048.16;;;6.06;77.71
83488;BME280;73424;49.994;8.184;2023-12-20T11:17:35;100129.13;;;6.64;76.83
83488;BME280;73424;49.994;8.184;2023-12-20T11:22:29;100141.88;;;6.68;77.29
83488;BME280;73424;49.994;8.184;2023-12-20T11:24:59;100151.31;;;6.71;77.28
83488;BME280;73424;49.994;8.184;2023-12-20T11:27:27;100114.91;;;6.48;77.30
83488;BME280;73424;49.994;8.184;2023-12-20T11:29:54;100151.66;;;6.68;77.05
83488;BME280;73424;49.994;8.184;2023-12-20T11:34:56;100157.44;;;6.71;77.48
83488;BME280;73424;49.994;8.184;2023-12-20T11:37:31;100122.38;;;6.53;77.36
83488;BME280;73424;49.994;8.184;2023-12-20T11:40:06;100151.13;;;6.80;77.30
83488;BME280;73424;49.994;8.184;2023-12-20T11:42:43;100118.22;;;6.58;75.78
83488;BME280;73424;49.994;8.184;2023-12-20T11:45:10;100141.69;;;6.70;74.54
83488;BME280;73424;49.994;8.184;2023-12-20T11:47:35;100112.59;;;6.53;74.73
83488;BME280;73424;49.994;8.184;2023-12-20T11:50:01;100128.78;;;6.67;75.62
83488;BME280;73424;49.994;8.184;2023-12-20T11:52:29;100142.38;;;6.72;75.97
83488;BME280;73424;49.994;8.184;2023-12-20T11:54:54;100127.16;;;6.66;76.71
83488;BME280;73424;49.994;8.184;2023-12-20T11:57:20;100085.78;;;6.48;75.34
83488;BME280;73424;49.994;8.184;2023-12-20T11:59:45;100124.44;;;6.74;75.34
83488;BME280;73424;49.994;8.184;2023-12-20T12:02:11;100119.00;;;6.67;74.97
83488;BME280;73424;49.994;8.184;2023-12-20T12:04:37;100102.59;;;6.72;74.93
83488;BME280;73424;49.994;8.184;2023-12-20T12:07:02;100094.31;;;6.75;75.39
83488;BME280;73424;49.994;8.184;2023-12-20T12:09:28;100068.75;;;6.82;74.66
83488;BME280;73424;49.994;8.184;2023-12-20T12:11:53;100084.31;;;6.85;75.29
83488;BME280;73424;49.994;8.184;2023-12-20T12:14:19;100052.94;;;6.66;74.12
83488;BME280;73424;49.994;8.184;2023-12-20T12:16:45;100024.03;;;6.48;74.39
83488;BME280;73424;49.994;8.184;2023-12-20T12:19:24;100104.25;;;7.03;74.46
83488;BME280;73424;49.994;8.184;2023-12-20T12:21:50;100088.88;;;6.99;74.44
83488;BME280;73424;49.994;8.184;2023-12-20T12:24:20;100101.22;;;7.15;74.65
83488;BME280;73424;49.994;8.184;2023-12-20T12:26:52;100101.72;;;7.18;75.19
83488;BME280;73424;49.994;8.184;2023-12-20T12:29:18;100073.94;;;7.06;74.75
83488;BME280;73424;49.994;8.184;2023-12-20T12:31:43;100087.19;;;7.06;75.54
83488;BME280;73424;49.994;8.184;2023-12-20T12:34:08;100100.88;;;7.18;75.35
83488;BME280;73424;49.994;8.184;2023-12-20T12:36:34;100074.50;;;7.16;74.84
83488;BME280;73424;49.994;8.184;2023-12-20T12:39:02;100088.88;;;7.22;74.91
83488;BME280;73424;49.994;8.184;2023-12-20T12:41:29;100053.81;;;7.11;75.88
83488;BME280;73424;49.994;8.184;2023-12-20T12:43:54;100060.31;;;7.09;75.63
83488;BME280;73424;49.994;8.184;2023-12-20T12:46:19;100016.78;;;6.95;74.92
83488;BME280;73424;49.994;8.184;2023-12-20T12:48:45;100069.53;;;7.21;74.81
83488;BME280;73424;49.994;8.184;2023-12-20T12:51:11;100023.50;;;6.83;74.63
83488;BME280;73424;49.994;8.184;2023-12-20T12:53:38;100030.25;;;6.94;75.40
83488;BME280;73424;49.994;8.184;2023-12-20T12:56:04;100038.97;;;7.02;76.12
83488;BME280;73424;49.994;8.184;2023-12-20T12:58:29;99990.22;;;6.81;76.15
83488;BME280;73424;49.994;8.184;2023-12-20T13:00:55;100020.69;;;7.07;75.66